createdAt,value
2022-11-25T00:01:33.257Z,16.95
2022-11-25T00:04:03.371Z,17.25
2022-11-25T00:06:34.048Z,16.95
2022-11-25T00:09:04.783Z,18.85
2022-11-25T00:11:35.256Z,17.27
2022-11-25T00:14:03.697Z,17.55
2022-11-25T00:16:32.158Z,16.58
2022-11-25T00:19:02.561Z,15.48
2022-11-25T00:21:33.782Z,14.63
2022-11-25T00:24:03.981Z,16.63
2022-11-25T00:26:34.161Z,15.57
2022-11-25T00:29:09.031Z,15.70
2022-11-25T00:31:39.674Z,14.60
2022-11-25T00:34:13.664Z,13.38
2022-11-25T00:36:41.999Z,13.88
2022-11-25T00:39:12.956Z,14.27
2022-11-25T00:41:59.353Z,14.82
2022-11-25T00:44:41.079Z,15.07
2022-11-25T00:47:12.860Z,14.77
2022-11-25T00:49:46.774Z,14.55
2022-11-25T00:52:16.611Z,20.90
2022-11-25T00:54:45.915Z,22.13
2022-11-25T00:57:14.665Z,23.30
2022-11-25T00:59:42.939Z,16.88
2022-11-25T01:02:12.519Z,15.52
2022-11-25T01:04:41.408Z,13.85
2022-11-25T01:07:11.432Z,13.73
2022-11-25T01:09:39.830Z,12.73
2022-11-25T01:12:09.148Z,13.52
2022-11-25T01:17:08.682Z,12.70
2022-11-25T01:19:40.319Z,19.30
2022-11-25T01:22:10.434Z,14.48
2022-11-25T01:24:39.061Z,14.32
2022-11-25T01:27:07.529Z,14.18
2022-11-25T01:29:37.984Z,13.70
2022-11-25T01:32:08.774Z,16.10
2022-11-25T01:34:37.570Z,12.93
2022-11-25T01:37:06.582Z,13.65
2022-11-25T01:39:36.492Z,14.45
2022-11-25T01:42:04.986Z,13.07
2022-11-25T01:44:34.706Z,13.48
2022-11-25T01:47:11.320Z,13.73
2022-11-25T01:49:45.648Z,13.05
2022-11-25T01:52:19.757Z,13.05
2022-11-25T01:54:55.229Z,14.38
2022-11-25T02:00:00.067Z,12.98
2022-11-25T02:02:30.185Z,13.68
2022-11-25T02:05:00.544Z,12.43
2022-11-25T02:07:32.885Z,14.32
2022-11-25T02:10:06.270Z,13.38
2022-11-25T02:12:36.703Z,13.25
2022-11-25T02:15:06.943Z,13.68
2022-11-25T02:17:36.169Z,14.60
2022-11-25T02:20:10.393Z,12.98
2022-11-25T02:22:53.244Z,13.85
2022-11-25T02:25:25.633Z,13.38
2022-11-25T02:27:58.891Z,13.30
2022-11-25T02:30:27.268Z,14.18
2022-11-25T02:32:55.732Z,14.80
2022-11-25T02:35:33.257Z,14.93
2022-11-25T02:38:08.753Z,14.70
2022-11-25T02:40:47.153Z,15.18
2022-11-25T02:43:16.111Z,15.23
2022-11-25T02:45:53.997Z,15.35
2022-11-25T02:48:45.797Z,14.13
2022-11-25T02:51:16.664Z,14.45
2022-11-25T02:56:16.941Z,14.63
2022-11-25T02:58:45.351Z,16.25
2022-11-25T03:01:13.830Z,15.48
2022-11-25T03:03:44.916Z,15.13
2022-11-25T03:06:13.224Z,15.45
2022-11-25T03:08:41.680Z,15.40
2022-11-25T03:11:14.620Z,16.02
2022-11-25T03:13:43.022Z,17.00
2022-11-25T03:16:11.583Z,15.55
2022-11-25T03:18:40.051Z,16.80
2022-11-25T03:21:08.545Z,15.77
2022-11-25T03:23:36.951Z,19.27
2022-11-25T03:26:07.664Z,15.43
2022-11-25T03:28:40.153Z,16.48
2022-11-25T03:31:12.271Z,15.65
2022-11-25T03:33:40.693Z,16.52
2022-11-25T03:36:09.327Z,15.70
2022-11-25T03:38:37.769Z,15.68
2022-11-25T03:41:06.891Z,15.50
2022-11-25T03:43:35.909Z,15.70
2022-11-25T03:46:06.210Z,16.83
2022-11-25T03:48:37.730Z,16.48
2022-11-25T03:51:09.356Z,17.70
2022-11-25T03:53:37.711Z,17.55
2022-11-25T03:56:09.918Z,16.42
2022-11-25T03:58:38.263Z,17.20
2022-11-25T04:01:09.319Z,18.75
2022-11-25T04:03:37.742Z,18.55
2022-11-25T04:06:08.815Z,18.08
2022-11-25T04:08:37.625Z,18.20
2022-11-25T04:11:06.656Z,17.33
2022-11-25T04:13:39.114Z,16.55
2022-11-25T04:16:16.395Z,16.02
2022-11-25T04:18:44.795Z,18.65
2022-11-25T04:21:13.118Z,17.52
2022-11-25T04:23:42.068Z,18.90
2022-11-25T04:26:13.756Z,17.90
2022-11-25T04:28:45.901Z,17.58
2022-11-25T04:31:16.466Z,18.13
2022-11-25T04:33:51.080Z,20.03
2022-11-25T04:36:25.086Z,17.25
2022-11-25T04:38:53.787Z,16.92
2022-11-25T04:41:24.295Z,18.25
2022-11-25T04:43:52.693Z,18.13
2022-11-25T04:46:27.736Z,18.50
2022-11-25T04:48:56.750Z,17.05
2022-11-25T04:51:27.622Z,18.25
2022-11-25T04:54:00.467Z,20.50
2022-11-25T04:56:29.100Z,17.80
2022-11-25T04:59:20.488Z,18.13
2022-11-25T05:01:50.994Z,17.35
2022-11-25T05:04:26.174Z,15.90
2022-11-25T05:06:55.692Z,17.13
2022-11-25T05:09:26.069Z,18.23
2022-11-25T05:12:12.245Z,16.88
2022-11-25T05:14:40.879Z,16.85
2022-11-25T05:17:16.118Z,18.47
2022-11-25T05:19:46.108Z,16.25
2022-11-25T05:22:19.656Z,18.45
2022-11-25T05:24:48.386Z,16.50
2022-11-25T05:27:18.023Z,18.25
2022-11-25T05:29:49.190Z,16.10
2022-11-25T05:32:22.681Z,17.73
2022-11-25T05:34:51.274Z,15.93
2022-11-25T05:37:24.182Z,16.27
2022-11-25T05:39:59.811Z,16.42
2022-11-25T05:42:44.071Z,17.42
2022-11-25T05:45:13.417Z,15.88
2022-11-25T05:47:43.540Z,17.35
2022-11-25T05:50:18.013Z,17.27
2022-11-25T05:53:04.465Z,16.73
2022-11-25T05:55:34.460Z,16.70
2022-11-25T05:58:07.381Z,16.00
2022-11-25T06:00:36.308Z,18.05
2022-11-25T06:03:11.582Z,16.45
2022-11-25T06:05:41.282Z,16.63
2022-11-25T06:08:10.146Z,16.30
2022-11-25T06:10:40.472Z,16.98
2022-11-25T06:13:09.873Z,15.35
2022-11-25T06:15:42.495Z,16.33
2022-11-25T06:18:14.438Z,16.48
2022-11-25T06:20:43.314Z,16.10
2022-11-25T06:23:11.772Z,16.45
2022-11-25T06:25:41.410Z,16.48
2022-11-25T06:28:13.652Z,14.90
2022-11-25T06:30:46.226Z,15.88
2022-11-25T06:33:25.782Z,15.20
2022-11-25T06:35:57.525Z,15.77
2022-11-25T06:38:25.878Z,14.23
2022-11-25T06:40:57.721Z,15.55
2022-11-25T06:43:28.525Z,15.77
2022-11-25T06:45:56.853Z,15.55
2022-11-25T06:48:26.585Z,15.95
2022-11-25T06:50:59.091Z,16.67
2022-11-25T06:53:27.582Z,16.15
2022-11-25T06:56:07.222Z,16.45
2022-11-25T06:58:36.637Z,16.77
2022-11-25T07:01:06.731Z,15.60
2022-11-25T07:03:37.688Z,17.02
2022-11-25T07:06:06.903Z,17.60
2022-11-25T07:08:35.273Z,17.33
2022-11-25T07:11:05.693Z,19.65
2022-11-25T07:13:34.506Z,18.80
2022-11-25T07:16:04.136Z,18.77
2022-11-25T07:18:33.991Z,19.27
2022-11-25T07:21:08.707Z,20.15
2022-11-25T07:23:38.041Z,19.30
2022-11-25T07:26:09.009Z,19.70
2022-11-25T07:28:38.101Z,20.52
2022-11-25T07:31:27.596Z,18.73
2022-11-25T07:33:58.529Z,19.80
2022-11-25T07:36:29.562Z,20.67
2022-11-25T07:39:00.377Z,19.83
2022-11-25T07:41:29.685Z,20.20
2022-11-25T07:44:02.245Z,20.17
2022-11-25T07:46:34.784Z,20.63
2022-11-25T07:49:06.409Z,20.92
2022-11-25T07:51:38.042Z,19.80
2022-11-25T07:54:09.498Z,21.17
2022-11-25T07:56:39.599Z,20.50
2022-11-25T07:59:09.422Z,19.58
2022-11-25T08:01:37.805Z,20.90
2022-11-25T08:04:08.139Z,20.75
2022-11-25T08:06:39.939Z,20.23
2022-11-25T08:11:36.752Z,19.55
2022-11-25T08:14:05.651Z,21.20
2022-11-25T08:16:34.327Z,21.50
2022-11-25T08:19:05.928Z,21.63
2022-11-25T08:21:37.079Z,21.17
2022-11-25T08:24:05.697Z,21.13
2022-11-25T08:26:36.623Z,24.13
2022-11-25T08:29:06.390Z,20.93
2022-11-25T08:31:37.029Z,21.88
2022-11-25T08:34:08.501Z,22.10
2022-11-25T08:36:46.537Z,20.92
2022-11-25T08:39:44.300Z,21.00
2022-11-25T08:42:05.524Z,20.27
2022-11-25T08:44:33.826Z,19.77
2022-11-25T08:47:02.182Z,20.08
2022-11-25T08:49:34.957Z,20.15
2022-11-25T08:52:10.590Z,19.85
2022-11-25T08:54:41.052Z,20.67
2022-11-25T08:57:09.398Z,19.45
2022-11-25T09:02:06.731Z,19.85
2022-11-25T09:04:35.382Z,19.38
2022-11-25T09:07:05.860Z,18.50
2022-11-25T09:09:36.046Z,19.75
2022-11-25T09:12:05.388Z,21.30
2022-11-25T09:14:33.725Z,19.30
2022-11-25T09:17:03.843Z,19.25
2022-11-25T09:19:32.265Z,22.25
2022-11-25T09:22:00.565Z,19.88
2022-11-25T09:24:29.084Z,21.05
2022-11-25T09:26:58.770Z,21.00
2022-11-25T09:29:27.885Z,20.88
2022-11-25T09:31:56.286Z,22.23
2022-11-25T09:34:24.693Z,23.15
2022-11-25T09:36:53.087Z,22.55
2022-11-25T09:39:21.402Z,24.33
2022-11-25T09:42:20.241Z,22.00
2022-11-25T09:45:19.940Z,21.92
2022-11-25T09:47:57.798Z,20.73
2022-11-25T09:53:08.185Z,22.52
2022-11-25T09:55:41.006Z,24.30
2022-11-25T09:58:21.592Z,23.75
2022-11-25T10:00:52.202Z,23.55
2022-11-25T10:03:35.541Z,23.63
2022-11-25T10:06:09.826Z,23.77
2022-11-25T10:08:40.974Z,24.15
2022-11-25T10:11:20.185Z,25.33
2022-11-25T10:13:56.346Z,24.13
2022-11-25T10:16:35.529Z,25.77
2022-11-25T10:19:13.141Z,23.38
2022-11-25T10:21:41.696Z,23.77
2022-11-25T10:24:15.504Z,23.83
2022-11-25T10:26:45.765Z,23.67
2022-11-25T10:29:25.811Z,22.92
2022-11-25T10:32:02.554Z,24.63
2022-11-25T10:34:37.041Z,21.85
2022-11-25T10:37:14.059Z,23.17
2022-11-25T10:39:44.587Z,22.92
2022-11-25T10:42:19.729Z,23.02
2022-11-25T10:44:49.536Z,23.27
2022-11-25T10:47:36.294Z,23.95
2022-11-25T10:50:17.135Z,24.13
2022-11-25T10:52:55.354Z,23.15
2022-11-25T10:55:26.605Z,23.90
2022-11-25T10:57:56.023Z,23.17
2022-11-25T11:00:32.903Z,24.33
2022-11-25T11:03:14.238Z,24.38
2022-11-25T11:05:47.901Z,24.27
2022-11-25T11:08:22.077Z,25.05
2022-11-25T11:11:12.528Z,22.55
2022-11-25T11:13:41.005Z,22.63
2022-11-25T11:16:27.933Z,23.15
2022-11-25T11:18:57.221Z,22.52
2022-11-25T11:21:30.806Z,22.60
2022-11-25T11:24:00.967Z,23.27
2022-11-25T11:26:33.197Z,22.52
2022-11-25T11:29:08.345Z,23.00
2022-11-25T11:31:46.416Z,23.85
2022-11-25T11:34:42.357Z,25.92
2022-11-25T11:37:22.887Z,24.70
2022-11-25T11:40:04.985Z,26.20
2022-11-25T11:42:44.858Z,25.20
2022-11-25T11:45:33.063Z,26.70
2022-11-25T11:48:13.391Z,26.67
2022-11-25T11:50:46.790Z,26.27
2022-11-25T11:53:23.920Z,27.00
2022-11-25T11:56:33.675Z,27.15
2022-11-25T11:59:09.982Z,27.33
2022-11-25T12:01:49.338Z,27.15
2022-11-25T12:04:26.344Z,27.40
2022-11-25T12:07:03.722Z,31.98
2022-11-25T12:09:38.421Z,27.75
2022-11-25T12:12:10.649Z,25.08
2022-11-25T12:14:44.242Z,27.40
2022-11-25T12:17:19.721Z,25.23
2022-11-25T12:19:56.626Z,26.27
2022-11-25T12:22:29.083Z,25.70
2022-11-25T12:25:04.737Z,27.55
2022-11-25T12:27:37.495Z,26.25
2022-11-25T12:30:08.673Z,25.95
2022-11-25T12:32:49.811Z,27.83
2022-11-25T12:35:25.909Z,26.65
2022-11-25T12:38:02.957Z,27.83
2022-11-25T12:40:38.669Z,26.08
2022-11-25T12:43:21.187Z,28.70
2022-11-25T12:45:52.943Z,28.15
2022-11-25T12:48:23.821Z,27.92
2022-11-25T12:51:03.987Z,28.10
2022-11-25T12:53:41.540Z,26.77
2022-11-25T12:56:19.973Z,27.50
2022-11-25T12:59:02.232Z,27.67
2022-11-25T13:01:50.259Z,27.77
2022-11-25T13:04:48.755Z,27.17
2022-11-25T13:07:41.697Z,26.55
2022-11-25T13:10:40.160Z,27.73
2022-11-25T13:13:34.151Z,26.05
2022-11-25T13:16:06.887Z,27.70
2022-11-25T13:18:39.386Z,26.45
2022-11-25T13:21:09.394Z,26.98
2022-11-25T13:23:49.755Z,27.27
2022-11-25T13:26:50.675Z,25.48
2022-11-25T13:30:02.143Z,24.40
2022-11-25T13:32:35.951Z,25.63
2022-11-25T13:35:38.717Z,26.25
2022-11-25T13:38:48.679Z,25.33
2022-11-25T13:41:33.606Z,25.35
2022-11-25T13:44:07.911Z,26.10
2022-11-25T13:46:41.655Z,27.67
2022-11-25T13:49:24.652Z,28.70
2022-11-25T13:51:55.368Z,26.80
2022-11-25T13:54:31.754Z,28.02
2022-11-25T13:57:18.778Z,26.30
2022-11-25T13:59:55.632Z,25.70
2022-11-25T14:02:49.780Z,25.60
2022-11-25T14:05:48.703Z,26.45
2022-11-25T14:08:31.939Z,35.30
2022-11-25T23:31:41.987Z,23.38
2022-11-25T23:34:13.858Z,27.90
2022-11-25T23:41:47.478Z,24.63
2022-11-25T23:44:17.993Z,27.13
2022-11-25T23:46:46.481Z,26.92
2022-11-25T23:49:23.388Z,27.95
2022-11-25T23:51:56.026Z,29.10
2022-11-25T23:54:30.606Z,29.45
2022-11-25T23:56:58.994Z,28.40
2022-11-25T23:59:31.059Z,28.67
